createdAt,value
2019-01-25T00:00:02.456Z,15.53
2019-01-25T00:02:50.899Z,17.55
2019-01-25T00:05:40.175Z,22.17
2019-01-25T00:08:28.656Z,17.40
2019-01-25T00:11:17.799Z,16.37
2019-01-25T00:14:08.575Z,18.05
2019-01-25T00:16:57.371Z,15.55
2019-01-25T00:19:46.418Z,15.35
2019-01-25T00:22:35.896Z,15.63
2019-01-25T00:25:25.101Z,19.27
2019-01-25T00:28:14.157Z,17.77
2019-01-25T00:31:03.222Z,20.00
2019-01-25T00:33:51.753Z,22.60
2019-01-25T00:36:40.857Z,19.07
2019-01-25T00:39:29.838Z,17.67
2019-01-25T00:42:19.011Z,18.50
2019-01-25T00:45:10.370Z,19.82
2019-01-25T00:47:59.576Z,20.27
2019-01-25T00:50:48.562Z,20.25
2019-01-25T00:53:37.578Z,19.20
2019-01-25T00:56:26.883Z,25.60
2019-01-25T00:59:15.757Z,21.05
2019-01-25T01:02:05.135Z,22.35
2019-01-25T01:04:53.962Z,17.50
2019-01-25T01:07:43.195Z,17.85
2019-01-25T01:10:32.219Z,20.32
2019-01-25T01:13:21.241Z,19.48
2019-01-25T01:16:11.499Z,17.20
2019-01-25T01:19:00.423Z,18.17
2019-01-25T01:21:48.877Z,15.75
2019-01-25T01:24:37.786Z,17.30
2019-01-25T01:27:26.405Z,15.18
2019-01-25T01:30:19.998Z,17.10
2019-01-25T01:33:08.595Z,15.70
2019-01-25T01:35:57.628Z,17.00
2019-01-25T01:38:46.756Z,14.30
2019-01-25T01:41:35.810Z,15.60
2019-01-25T01:44:25.062Z,15.00
2019-01-25T01:47:14.230Z,16.02
2019-01-25T01:50:04.610Z,14.03
2019-01-25T01:52:53.678Z,15.00
2019-01-25T01:55:42.085Z,17.77
2019-01-25T01:58:30.886Z,15.93
2019-01-25T02:01:19.926Z,13.80
2019-01-25T02:04:09.027Z,15.10
2019-01-25T02:06:58.156Z,14.78
2019-01-25T02:09:47.514Z,14.35
2019-01-25T02:12:36.596Z,16.07
2019-01-25T02:15:25.270Z,15.40
2019-01-25T02:18:13.949Z,17.05
2019-01-25T02:21:03.615Z,17.27
2019-01-25T02:23:52.308Z,15.35
2019-01-25T02:26:41.404Z,14.73
2019-01-25T02:29:30.050Z,14.83
2019-01-25T02:32:18.814Z,17.30
2019-01-25T02:35:09.206Z,17.02
2019-01-25T02:37:58.257Z,17.55
2019-01-25T02:40:47.198Z,17.10
2019-01-25T02:43:36.200Z,18.45
2019-01-25T02:46:25.135Z,17.50
2019-01-25T02:49:13.909Z,19.27
2019-01-25T02:52:03.064Z,19.60
2019-01-25T02:54:51.864Z,17.87
2019-01-25T02:57:40.554Z,18.40
2019-01-25T03:00:29.206Z,19.12
2019-01-25T03:03:18.354Z,18.07
2019-01-25T03:06:07.030Z,20.62
2019-01-25T03:08:56.104Z,17.92
2019-01-25T03:11:44.827Z,17.92
2019-01-25T03:14:33.681Z,18.35
2019-01-25T03:17:22.557Z,16.57
2019-01-25T03:20:14.873Z,19.90
2019-01-25T03:23:03.531Z,19.17
2019-01-25T03:25:52.608Z,18.40
2019-01-25T03:28:41.522Z,17.45
2019-01-25T03:31:30.161Z,16.12
2019-01-25T03:34:18.896Z,18.85
2019-01-25T03:37:07.517Z,18.32
2019-01-25T03:39:56.019Z,20.80
2019-01-25T03:42:44.623Z,17.73
2019-01-25T03:45:33.555Z,19.65
2019-01-25T03:48:22.686Z,18.77
2019-01-25T03:51:11.652Z,16.75
2019-01-25T03:54:00.259Z,17.73
2019-01-25T03:56:49.376Z,17.60
2019-01-25T03:59:38.270Z,17.67
2019-01-25T04:02:27.464Z,16.45
2019-01-25T04:05:17.122Z,18.20
2019-01-25T04:08:06.773Z,18.15
2019-01-25T04:11:03.071Z,18.42
2019-01-25T04:13:46.327Z,14.68
2019-01-25T04:16:34.814Z,17.02
2019-01-25T04:19:23.995Z,16.07
2019-01-25T04:22:12.902Z,16.85
2019-01-25T04:25:01.892Z,16.95
2019-01-25T04:27:51.976Z,17.73
2019-01-25T04:30:41.173Z,16.87
2019-01-25T04:33:30.328Z,16.95
2019-01-25T04:36:19.498Z,17.73
2019-01-25T04:39:09.233Z,16.90
2019-01-25T04:41:57.890Z,16.20
2019-01-25T04:44:46.403Z,17.23
2019-01-25T04:47:35.235Z,17.15
2019-01-25T04:50:25.061Z,16.80
2019-01-25T04:53:13.535Z,18.70
2019-01-25T04:56:02.597Z,17.07
2019-01-25T04:58:50.919Z,17.02
2019-01-25T05:01:40.004Z,17.45
2019-01-25T05:04:35.384Z,17.75
2019-01-25T05:07:24.228Z,17.32
2019-01-25T05:10:13.226Z,16.67
2019-01-25T05:13:01.740Z,17.02
2019-01-25T05:15:50.956Z,16.50
2019-01-25T05:18:39.845Z,17.17
2019-01-25T05:21:28.621Z,17.12
2019-01-25T05:24:17.450Z,17.50
2019-01-25T05:27:06.392Z,18.42
2019-01-25T05:29:55.702Z,17.30
2019-01-25T05:32:44.462Z,18.62
2019-01-25T05:35:37.793Z,19.32
2019-01-25T05:38:26.474Z,16.90
2019-01-25T05:41:16.006Z,17.00
2019-01-25T05:44:04.808Z,18.90
2019-01-25T05:46:53.775Z,16.67
2019-01-25T05:49:42.617Z,17.55
2019-01-25T05:52:31.660Z,17.75
2019-01-25T05:55:22.610Z,17.52
2019-01-25T05:58:12.342Z,17.90
2019-01-25T06:01:01.228Z,16.85
2019-01-25T06:03:50.519Z,18.07
2019-01-25T06:06:39.805Z,17.20
2019-01-25T06:09:28.794Z,16.70
2019-01-25T06:12:17.428Z,17.65
2019-01-25T06:15:12.924Z,17.32
2019-01-25T06:18:06.394Z,18.17
2019-01-25T06:20:57.782Z,17.30
2019-01-25T06:23:46.641Z,17.57
2019-01-25T06:26:35.938Z,17.27
2019-01-25T06:29:24.859Z,17.90
2019-01-25T06:32:14.270Z,17.48
2019-01-25T06:35:03.721Z,17.40
2019-01-25T06:37:52.168Z,17.90
2019-01-25T06:40:41.242Z,18.12
2019-01-25T06:43:31.291Z,17.05
2019-01-25T06:46:20.026Z,19.75
2019-01-25T06:49:08.626Z,17.60
2019-01-25T06:51:57.544Z,16.62
2019-01-25T06:54:45.837Z,17.80
2019-01-25T06:57:36.388Z,17.40
2019-01-25T07:00:29.829Z,17.05
2019-01-25T07:03:18.339Z,17.07
2019-01-25T07:06:07.452Z,18.48
2019-01-25T07:08:55.747Z,17.27
2019-01-25T07:11:51.285Z,18.48
2019-01-25T07:14:35.104Z,16.87
2019-01-25T07:17:24.099Z,18.05
2019-01-25T07:20:16.484Z,17.50
2019-01-25T07:23:05.100Z,17.20
2019-01-25T07:25:53.803Z,18.27
2019-01-25T07:28:42.403Z,19.00
2019-01-25T07:31:31.462Z,16.75
2019-01-25T07:34:19.732Z,14.83
2019-01-25T07:37:08.782Z,15.40
2019-01-25T07:39:57.444Z,13.98
2019-01-25T07:42:45.836Z,14.60
2019-01-25T07:45:34.673Z,13.60
2019-01-25T07:48:23.106Z,14.90
2019-01-25T07:51:11.406Z,13.80
2019-01-25T07:54:00.277Z,16.35
2019-01-25T07:56:49.320Z,14.70
2019-01-25T07:59:38.062Z,15.30
2019-01-25T08:02:27.301Z,14.75
2019-01-25T08:05:16.446Z,14.68
2019-01-25T08:08:05.615Z,14.25
2019-01-25T08:10:54.443Z,13.50
2019-01-25T08:13:43.102Z,15.03
2019-01-25T08:16:31.894Z,13.28
2019-01-25T08:19:20.988Z,14.30
2019-01-25T08:22:10.098Z,13.50
2019-01-25T08:24:59.322Z,13.60
2019-01-25T08:27:48.786Z,14.93
2019-01-25T08:30:38.116Z,13.75
2019-01-25T08:33:27.305Z,14.50
2019-01-25T08:36:16.034Z,14.60
2019-01-25T08:39:07.293Z,14.78
2019-01-25T08:41:56.018Z,14.90
2019-01-25T08:44:45.214Z,16.10
2019-01-25T08:47:34.131Z,14.03
2019-01-25T08:50:27.707Z,16.35
2019-01-25T08:53:16.465Z,13.05
2019-01-25T08:56:05.070Z,13.60
2019-01-25T08:58:54.238Z,15.35
2019-01-25T09:01:43.276Z,13.50
2019-01-25T09:04:32.209Z,13.03
2019-01-25T09:07:21.361Z,14.50
2019-01-25T09:10:14.460Z,12.60
2019-01-25T09:13:03.330Z,13.70
2019-01-25T09:15:52.574Z,12.30
2019-01-25T09:18:41.559Z,15.48
2019-01-25T09:21:30.536Z,16.00
2019-01-25T09:24:18.791Z,13.80
2019-01-25T09:27:07.722Z,13.50
2019-01-25T09:29:56.470Z,12.53
2019-01-25T09:32:44.872Z,13.22
2019-01-25T09:35:33.770Z,12.20
2019-01-25T09:38:22.865Z,14.75
2019-01-25T09:41:11.839Z,13.70
2019-01-25T09:44:00.222Z,14.85
2019-01-25T09:46:49.232Z,12.95
2019-01-25T09:49:37.466Z,13.80
2019-01-25T09:52:26.178Z,15.05
2019-01-25T09:55:24.274Z,13.35
2019-01-25T09:58:17.921Z,12.65
2019-01-25T10:01:07.920Z,13.25
2019-01-25T10:03:56.706Z,15.25
2019-01-25T10:06:45.856Z,12.18
2019-01-25T10:09:34.627Z,15.83
2019-01-25T10:12:23.596Z,13.40
2019-01-25T10:15:25.941Z,13.15
2019-01-25T10:18:14.922Z,12.98
2019-01-25T10:21:03.983Z,13.18
2019-01-25T10:23:53.226Z,12.65
2019-01-25T10:26:42.325Z,11.12
2019-01-25T10:29:30.794Z,12.65
2019-01-25T10:32:20.038Z,11.65
2019-01-25T10:35:11.502Z,13.68
2019-01-25T10:38:00.438Z,13.32
2019-01-25T10:40:49.328Z,13.22
2019-01-25T10:43:37.797Z,13.30
2019-01-25T10:46:26.584Z,13.18
2019-01-25T10:49:15.277Z,13.20
2019-01-25T10:52:04.116Z,14.95
2019-01-25T10:54:52.986Z,14.13
2019-01-25T10:57:41.384Z,14.15
2019-01-25T11:00:30.881Z,15.32
2019-01-25T11:03:20.154Z,15.48
2019-01-25T11:06:08.477Z,15.48
2019-01-25T11:08:57.472Z,14.80
2019-01-25T11:11:46.130Z,16.90
2019-01-25T11:14:35.288Z,14.60
2019-01-25T11:17:24.366Z,16.15
2019-01-25T11:20:22.534Z,16.60
2019-01-25T11:23:11.538Z,18.20
2019-01-25T11:26:00.250Z,18.40
2019-01-25T11:28:49.074Z,17.70
2019-01-25T11:31:38.038Z,17.95
2019-01-25T11:34:26.577Z,17.95
2019-01-25T11:37:15.686Z,18.62
2019-01-25T11:40:15.529Z,16.02
2019-01-25T11:43:08.889Z,16.25
2019-01-25T11:45:55.608Z,15.90
2019-01-25T11:48:44.758Z,16.00
2019-01-25T11:51:33.918Z,14.43
2019-01-25T11:54:23.060Z,16.10
2019-01-25T11:57:11.424Z,15.40
2019-01-25T12:00:00.257Z,16.85
2019-01-25T12:02:49.603Z,18.30
2019-01-25T12:05:38.467Z,15.43
2019-01-25T12:08:27.410Z,16.57
2019-01-25T12:11:15.996Z,16.20
2019-01-25T12:14:07.050Z,15.83
2019-01-25T12:16:56.074Z,15.85
2019-01-25T12:19:45.354Z,16.67
2019-01-25T12:22:34.556Z,17.98
2019-01-25T12:25:23.307Z,17.90
2019-01-25T12:28:12.329Z,17.17
2019-01-25T12:31:00.973Z,16.93
2019-01-25T12:33:49.765Z,17.07
2019-01-25T12:36:38.433Z,18.02
2019-01-25T12:39:27.521Z,18.85
2019-01-25T12:42:16.432Z,20.30
2019-01-25T12:45:09.393Z,17.82
2019-01-25T12:47:58.122Z,20.25
2019-01-25T12:50:54.149Z,18.65
2019-01-25T12:53:43.408Z,18.77
2019-01-25T12:56:32.279Z,20.15
2019-01-25T12:59:21.611Z,19.57
2019-01-25T13:02:10.241Z,20.80
2019-01-25T13:04:59.262Z,20.95
2019-01-25T13:07:47.942Z,21.23
2019-01-25T13:10:37.204Z,20.30
2019-01-25T13:13:31.527Z,22.52
2019-01-25T13:16:16.810Z,18.92
2019-01-25T13:19:05.585Z,21.27
2019-01-25T13:21:54.473Z,20.23
2019-01-25T13:24:43.329Z,21.00
2019-01-25T13:27:32.070Z,18.48
2019-01-25T13:30:29.899Z,20.85
2019-01-25T13:33:18.578Z,19.50
2019-01-25T13:36:09.922Z,18.65
2019-01-25T13:38:59.089Z,19.27
2019-01-25T13:41:48.133Z,20.95
2019-01-25T13:44:37.298Z,20.48
2019-01-25T13:47:26.123Z,21.90
2019-01-25T13:50:25.207Z,21.90
2019-01-25T13:53:14.268Z,21.50
2019-01-25T13:56:02.949Z,22.10
2019-01-25T13:58:52.011Z,22.75
2019-01-25T14:01:41.227Z,20.77
2019-01-25T14:04:30.230Z,21.97
2019-01-25T14:07:21.090Z,20.97
2019-01-25T14:10:22.522Z,20.80
2019-01-25T14:13:11.486Z,21.82
2019-01-25T14:16:00.479Z,21.57
2019-01-25T14:18:49.449Z,21.60
2019-01-25T14:21:38.797Z,23.05
2019-01-25T14:24:27.206Z,23.70
2019-01-25T14:27:16.488Z,23.42
2019-01-25T14:30:24.175Z,23.20
2019-01-25T14:33:13.000Z,25.88
2019-01-25T14:36:01.593Z,22.82
2019-01-25T14:38:50.732Z,24.45
2019-01-25T14:41:39.418Z,24.15
2019-01-25T14:44:28.590Z,24.80
2019-01-25T14:47:17.355Z,25.30
2019-01-25T14:50:16.518Z,25.45
2019-01-25T14:53:06.133Z,24.57
2019-01-25T14:55:54.580Z,25.27
2019-01-25T14:58:43.573Z,25.52
2019-01-25T15:01:32.914Z,25.82
2019-01-25T15:04:21.970Z,25.62
2019-01-25T15:07:10.941Z,24.90
2019-01-25T15:10:00.231Z,25.70
2019-01-25T15:12:50.010Z,26.37
2019-01-25T15:15:38.788Z,24.67
2019-01-25T15:18:27.403Z,24.82
2019-01-25T15:21:16.278Z,26.55
2019-01-25T15:24:05.232Z,25.90
2019-01-25T15:26:54.704Z,25.92
2019-01-25T15:29:43.119Z,26.30
2019-01-25T15:32:31.973Z,24.60
2019-01-25T15:35:22.140Z,27.70
2019-01-25T15:38:10.857Z,27.82
2019-01-25T15:40:59.459Z,26.65
2019-01-25T15:43:48.204Z,23.90
2019-01-25T15:46:36.462Z,24.00
2019-01-25T15:49:25.628Z,23.75
2019-01-25T15:52:14.391Z,22.32
2019-01-25T15:55:04.479Z,21.17
2019-01-25T15:57:53.633Z,22.40
2019-01-25T16:00:42.262Z,22.02
2019-01-25T16:03:31.224Z,22.95
2019-01-25T16:06:20.138Z,21.27
2019-01-25T16:09:14.131Z,19.57
2019-01-25T16:12:00.165Z,21.77
2019-01-25T16:14:48.647Z,20.15
2019-01-25T16:17:37.654Z,21.35
2019-01-25T16:20:26.877Z,20.50
2019-01-25T16:23:15.968Z,20.00
2019-01-25T16:26:04.973Z,20.90
2019-01-25T16:28:54.165Z,20.52
2019-01-25T16:31:42.802Z,20.52
2019-01-25T16:34:31.598Z,20.80
2019-01-25T16:37:20.587Z,21.23
2019-01-25T16:40:28.000Z,20.20
2019-01-25T16:43:16.519Z,20.75
2019-01-25T16:46:05.389Z,20.82
2019-01-25T16:48:54.820Z,22.07
2019-01-25T16:51:43.984Z,20.08
2019-01-25T16:54:32.623Z,20.15
2019-01-25T16:57:21.615Z,21.23
2019-01-25T17:00:31.901Z,20.00
2019-01-25T17:03:20.706Z,19.12
2019-01-25T17:06:10.068Z,22.27
2019-01-25T17:08:59.244Z,20.57
2019-01-25T17:11:47.551Z,21.60
2019-01-25T17:14:36.719Z,21.65
2019-01-25T17:17:25.916Z,21.00
2019-01-25T17:20:21.473Z,21.15
2019-01-25T17:23:10.392Z,21.55
2019-01-25T17:25:59.116Z,20.45
2019-01-25T17:28:48.170Z,19.90
2019-01-25T17:31:37.222Z,23.47
2019-01-25T17:34:26.297Z,21.42
2019-01-25T17:37:14.906Z,23.10
2019-01-25T17:40:05.531Z,23.05
2019-01-25T17:42:54.957Z,21.62
2019-01-25T17:45:44.284Z,21.50
2019-01-25T17:48:33.192Z,20.97
2019-01-25T17:51:22.066Z,22.07
2019-01-25T17:54:11.034Z,19.90
2019-01-25T17:57:00.311Z,21.82
2019-01-25T17:59:48.965Z,21.35
2019-01-25T18:02:38.316Z,21.10
2019-01-25T18:05:27.263Z,20.12
2019-01-25T18:08:16.281Z,21.45
2019-01-25T18:11:05.466Z,20.72
2019-01-25T18:13:54.574Z,21.07
2019-01-25T18:16:43.017Z,21.65
2019-01-25T18:19:31.675Z,21.30
2019-01-25T18:22:20.102Z,20.55
2019-01-25T18:25:16.796Z,20.50
2019-01-25T18:28:18.854Z,19.27
2019-01-25T18:31:18.930Z,19.77
2019-01-25T18:34:07.919Z,21.17
2019-01-25T18:36:56.831Z,21.20
2019-01-25T18:39:45.357Z,18.80
2019-01-25T18:42:34.359Z,21.17
2019-01-25T18:45:23.531Z,20.17
2019-01-25T18:48:12.776Z,19.25
2019-01-25T18:51:01.999Z,18.85
2019-01-25T18:53:51.172Z,19.67
2019-01-25T18:56:40.236Z,19.98
2019-01-25T18:59:29.350Z,19.27
2019-01-25T19:02:20.139Z,19.80
2019-01-25T19:05:10.448Z,19.57
2019-01-25T19:07:59.681Z,19.50
2019-01-25T19:10:48.258Z,19.15
2019-01-25T19:13:36.626Z,19.02
2019-01-25T19:16:25.620Z,20.05
2019-01-25T19:19:13.951Z,19.73
2019-01-25T19:22:02.892Z,19.70
2019-01-25T19:24:51.788Z,19.98
2019-01-25T19:27:40.936Z,19.70
2019-01-25T19:30:36.591Z,19.12
2019-01-25T19:33:25.648Z,19.05
2019-01-25T19:36:14.661Z,21.60
2019-01-25T19:39:05.199Z,20.65
2019-01-25T19:41:54.536Z,20.15
2019-01-25T19:44:43.362Z,19.50
2019-01-25T19:47:31.689Z,20.43
2019-01-25T19:50:21.770Z,19.60
2019-01-25T19:53:10.274Z,21.42
2019-01-25T19:55:59.080Z,20.52
2019-01-25T19:58:48.705Z,21.20
2019-01-25T20:01:38.088Z,20.00
2019-01-25T20:04:27.010Z,20.27
2019-01-25T20:07:16.142Z,21.42
2019-01-25T20:10:09.206Z,19.65
2019-01-25T20:12:57.743Z,20.25
2019-01-25T20:15:46.803Z,20.68
2019-01-25T20:18:35.954Z,21.50
2019-01-25T20:21:25.200Z,23.05
2019-01-25T20:24:14.470Z,21.40
2019-01-25T20:27:03.712Z,21.77
2019-01-25T20:29:52.575Z,23.00
2019-01-25T20:32:41.416Z,21.02
2019-01-25T20:35:44.180Z,23.07
2019-01-25T20:38:32.516Z,23.55
2019-01-25T20:41:20.941Z,22.67
2019-01-25T20:44:09.892Z,21.90
2019-01-25T20:46:59.295Z,23.60
2019-01-25T20:49:48.669Z,21.82
2019-01-25T20:52:37.567Z,24.25
2019-01-25T20:55:26.533Z,24.40
2019-01-25T20:58:15.631Z,23.40
2019-01-25T21:01:04.265Z,24.35
2019-01-25T21:03:53.817Z,25.65
2019-01-25T21:06:42.175Z,25.35
2019-01-25T21:09:31.090Z,23.32
2019-01-25T21:12:20.230Z,24.85
2019-01-25T21:15:13.225Z,24.25
2019-01-25T21:18:02.644Z,24.80
2019-01-25T21:20:50.914Z,26.20
2019-01-25T21:23:39.492Z,26.23
2019-01-25T21:26:28.367Z,25.52
2019-01-25T21:29:17.777Z,25.37
2019-01-25T21:32:06.874Z,26.82
2019-01-25T21:34:55.286Z,26.25
2019-01-25T21:37:44.545Z,25.55
2019-01-25T21:40:35.285Z,25.65
2019-01-25T21:43:24.303Z,24.05
2019-01-25T21:46:13.130Z,24.47
2019-01-25T21:49:02.127Z,24.18
2019-01-25T21:51:51.026Z,25.20
2019-01-25T21:54:39.852Z,24.00
2019-01-25T21:57:28.984Z,25.23
2019-01-25T22:00:31.000Z,25.30
2019-01-25T22:03:19.490Z,25.97
2019-01-25T22:06:08.630Z,23.62
2019-01-25T22:08:58.020Z,25.75
2019-01-25T22:11:46.756Z,24.72
2019-01-25T22:14:35.310Z,25.52
2019-01-25T22:17:23.885Z,24.65
2019-01-25T22:20:16.938Z,25.17
2019-01-25T22:23:06.559Z,23.75
2019-01-25T22:25:55.570Z,24.87
2019-01-25T22:28:44.735Z,24.63
2019-01-25T22:31:33.230Z,25.57
2019-01-25T22:34:22.464Z,24.10
2019-01-25T22:37:11.596Z,23.80
2019-01-25T22:40:00.373Z,24.85
2019-01-25T22:42:49.195Z,25.40
2019-01-25T22:45:37.827Z,25.50
2019-01-25T22:48:26.557Z,23.62
2019-01-25T22:51:15.627Z,24.45
2019-01-25T22:54:04.698Z,23.80
2019-01-25T22:56:54.185Z,24.40
2019-01-25T22:59:43.187Z,23.32
2019-01-25T23:02:31.839Z,23.73
2019-01-25T23:05:40.382Z,23.47
2019-01-25T23:08:28.887Z,21.40
2019-01-25T23:11:17.520Z,24.98
2019-01-25T23:14:10.387Z,25.27
2019-01-25T23:19:47.947Z,24.70
2019-01-25T23:28:12.742Z,24.30
